METAR Data
IDs: Format: Raw Decoded Include TAF

Data at: 0821 UTC 20 Sep 2018

PASD 200756Z AUTO 31006KT 10SM SCT032 10/07 A3040 RMK AO2 SLP296 T01000067
PASD 200656Z AUTO 31008KT 10SM BKN034 10/07 A3040 RMK AO2 SLPNO T01000067
PASD 200556Z AUTO 32010KT 10SM FEW036 11/06 A3039 RMK AO2 SLPNO T01060061 10122 20106 58001
PASD 200456Z AUTO 32009KT 10SM CLR 11/06 A3040 RMK AO2 SLPNO T01060056
PASD 200356Z AUTO 32011KT 10SM FEW033 12/06 A3039 RMK AO2 SLPNO T01170056
PASD 200256Z 32010KT 10SM SCT022 BKN033 BKN060 12/06 A3039 RMK AO2 SLPNO LAST T01170056 56003
PASD 200254Z 32010KT 10SM SCT022 BKN033 BKN060 12/06 A3039 RMK AO2 LAST
PASD 200250Z 31012KT 10SM SCT022 BKN033 BKN060 12/06 A3039 RMK AO2
PASD 200156Z 30012KT 10SM SCT022 BKN027 OVC040 12/07 A3040 RMK AO2 SLPNO T01170067
PASD 200055Z 31015KT 10SM SCT021 BKN028 OVC040 12/07 A3039
PASD 192355Z 33011KT 10SM SCT020 BKN028 OVC040 12/07 A3040
PASD 192321Z 32012KT 10SM SCT021 BKN028 BKN050 12/07 A3040 RMK AO2
PASD 192256Z 33011KT 10SM SCT024 BKN032 BKN050 12/07 A3040 RMK AO2 SLPNO T01170072
PASD 192156Z 31007KT 10SM SCT024 BKN033 BKN060 13/07 A3041 RMK AO2 SLPNO T01280067
PASD 192056Z 34012KT 10SM SCT026 SCT040 BKN100 12/07 A3040 RMK AO2 SLPNO 6//// T01220067
PASD 191954Z 33008KT 10SM FEW021 FEW080 SCT120 10/07 A3043
PASD 191952Z 34007KT 10SM FEW024 SCT060 SCT120 10/07 A3042
PASD 191752Z 32007KT 10SM FEW060 SCT120 09/07 A3043
PASD 191659Z 31005KT 10SM FEW027 FEW045 SCT110 09/07 A3041 RMK AO2 PNO $
PASD 191655Z 31005KT 10SM FEW027 FEW045 SCT110 09/07 A3041
PASD 191555Z 32007KT 10SM FEW035 SCT110 09/07 A3040
PASD 191456Z 33008KT 10SM FEW022 FEW034 SCT110 10/07 A3040 RMK AO2 SLP296 6//// T01000072 50002 PNO $
PASD 191256Z AUTO 31006KT 10SM CLR 09/07 A3039 RMK AO2 SLP293 T00890067 PNO $
PASD 191056Z AUTO 30007KT 10SM CLR 09/06 A3039 RMK AO2 SLP293 T00940061 PNO $
PASD 190956Z AUTO 32010KT 10SM CLR 11/07 A3038 RMK AO2 SLP291 T01060067 PNO $
PASD 190856Z AUTO 33011KT 10SM BKN055 11/07 A3039 RMK AO2 SLP294 6//// T01060067 401390083 51008 PNO $
PASD 190556Z AUTO 33009KT 10SM CLR 11/07 A3037 RMK AO2 SLP285 6//// T01060072 10133 20106 53009 PNO $
PASD 190456Z AUTO 32012KT 10SM CLR 11/07 A3035 RMK AO2 SLP281 T01110072 PNO $
PASD 190356Z AUTO 32012KT 10SM CLR 12/07 A3034 RMK AO2 SLP276 T01170067 PNO $
PASD 190256Z 31013KT 10SM FEW019 BKN031 BKN060 12/07 A3034 RMK AO2 SLP276 LAST 6//// T01170072 56001 PNO $
PASD 190254Z 31013KT 10SM FEW019 BKN031 BKN060 12/07 A3034 RMK AO2 LAST PNO $
PASD 190156Z 31015KT 10SM FEW024 SCT032 SCT050 13/07 A3034 RMK AO2 SLP276 T01280067 PNO $
PASD 190056Z 33012KT 10SM FEW023 SCT035 SCT110 13/05 A3034 RMK AO2 SLP276 T01330050 PNO $
PASD 182355Z 32017KT 10SM FEW025 SCT038 SCT110 13/04 A3034
PASD 182255Z 33015KT 10SM FEW024 SCT035 SCT110 13/05 A3035
PASD 182156Z 32014KT 10SM FEW021 SCT032 SCT110 13/04 A3034 RMK AO2 SLP277 T01280044 PNO $
PASD 182056Z 32014KT 10SM SCT028 SCT110 12/04 A3034 RMK AO2 SLP277 6//// T01220044 56000 PNO $